Flight Track Log - Related Links

Times and Time Zones

All times are in EDT time to prevent confusion due to time zone crossing. See the SWA868 flight status page for this flight to view local times or setup timezone preferences in your user account.

Time Position Orientation Groundspeed Altitude Reporting Facility
EDT Latitude Longitude Course Direction KTS MPH feet Rate Location/Type
Sun 09:26:02 PM 28.0000 -82.5333 358° North 171 197 1,000  Level Tampa TRACON
Sun 09:28:20 PM 28.1222 -82.5372 358° North 204 235 7,200 2,818 Climbing Jacksonville Center
Sun 09:29:20 PM 28.1953 -82.5533 349° North 238 274 10,300 2,950 Climbing Jacksonville Center
Sun 09:30:20 PM 28.2789 -82.5672 352° North 272 313 13,100 2,850 Climbing Jacksonville Center
Sun 09:31:20 PM 28.3667 -82.5836 351° North 302 348 16,000 2,950 Climbing Jacksonville Center
Sun 09:32:20 PM 28.4625 -82.5856 359° North 328 377 19,000 2,550 Climbing Jacksonville Center
Sun 09:33:20 PM 28.5586 -82.5878 359° North 338 389 21,100 1,800 Climbing Jacksonville Center
Sun 09:34:20 PM 28.6672 -82.5897 359° North 360 414 22,600 1,700 Climbing Jacksonville Center
Sun 09:35:20 PM 28.7797 -82.6036 354° North 384 442 24,500 1,950 Climbing Jacksonville Center
Sun 09:36:20 PM 28.8967 -82.6197 353° North 403 464 26,500 1,950 Climbing Jacksonville Center
Sun 09:37:20 PM 29.0053 -82.6339 353° North 426 490 28,400 1,600 Climbing Jacksonville Center
Sun 09:38:20 PM 29.1286 -82.6525 352° North 439 505 29,700 1,350 Climbing Jacksonville Center
Sun 09:39:20 PM 29.2558 -82.6711 353° North 451 519 31,100 1,700 Climbing Jacksonville Center
Sun 09:40:20 PM 29.3853 -82.6875 354° North 457 526 33,100 1,850 Climbing Jacksonville Center
Sun 09:41:20 PM 29.5169 -82.6969 356° North 464 534 34,800 1,500 Climbing Jacksonville Center
Sun 09:42:20 PM 29.6464 -82.6942 North 464 534 36,100 1,100 Climbing Jacksonville Center
Sun 09:43:20 PM 29.7800 -82.6939 360° North 464 534 37,000 450 Climbing Jacksonville Center
Sun 09:44:20 PM 29.9072 -82.6914 North 459 528 37,000  Level Jacksonville Center
Sun 09:45:20 PM 30.0408 -82.6886 North 459 528 37,000  Level Jacksonville Center
Sun 09:46:20 PM 30.1703 -82.6883 360° North 459 528 37,000  Level Jacksonville Center
Sun 09:47:20 PM 30.3039 -82.6881 360° North 459 528 37,000  Level Jacksonville Center
Sun 09:48:20 PM 30.4356 -82.6708 North 464 534 37,000  Level Jacksonville Center
Sun 09:49:20 PM 30.5628 -82.6128 21° North 469 540 37,000  Level Jacksonville Center
Sun 09:50:20 PM 30.6919 -82.5544 21° North 476 548 37,000  Level Jacksonville Center
Sun 09:51:20 PM 30.8214 -82.4958 21° North 488 562 37,000  Level Jacksonville Center
Sun 09:52:20 PM 30.9483 -82.4347 22° Northeast 493 567 37,000  Level Jacksonville Center
Sun 09:53:20 PM 31.0756 -82.3783 21° North 493 567 37,000  Level Jacksonville Center
Sun 09:54:20 PM 31.2047 -82.3194 21° North 493 567 37,000  Level Jacksonville Center
Sun 09:55:20 PM 31.3319 -82.2603 22° Northeast 493 567 37,000  Level Jacksonville Center
Sun 09:56:20 PM 31.4611 -82.2008 21° North 493 567 37,000  Level Jacksonville Center
Sun 09:57:20 PM 31.5900 -82.1389 22° Northeast 493 567 37,000  Level Jacksonville Center
Sun 09:58:20 PM 31.7297 -82.0767 21° North 493 567 37,000  Level Jacksonville Center
Sun 09:59:20 PM 31.8483 -82.0194 22° Northeast 498 573 37,000  Level Jacksonville Center
Sun 10:00:20 PM 31.9919 -81.9544 21° North 498 573 37,000  Level Jacksonville Center
Sun 10:01:20 PM 32.1083 -81.8967 23° Northeast 498 573 37,000  Level Jacksonville Center
Sun 10:02:20 PM 32.2539 -81.8314 21° North 498 573 37,000  Level Jacksonville Center
Sun 10:03:20 PM 32.3869 -81.7658 23° Northeast 503 579 37,000  Level Jacksonville Center
Sun 10:04:20 PM 32.5033 -81.7103 22° Northeast 503 579 37,000  Level Jacksonville Center
Sun 10:05:20 PM 32.6467 -81.6417 22° Northeast 503 579 37,000  Level Jacksonville Center
Sun 10:06:20 PM 32.7653 -81.5858 22° Northeast 508 585 37,000  Level Jacksonville Center
Sun 10:07:20 PM 32.8961 -81.5244 22° Northeast 508 585 37,000  Level Jacksonville Center
Sun 10:08:20 PM 33.0269 -81.4606 22° Northeast 508 585 37,000  Level Jacksonville Center
Sun 10:09:20 PM 33.1575 -81.3964 22° Northeast 508 585 37,000  Level Jacksonville Center
Sun 10:10:20 PM 33.2883 -81.3344 22° Northeast 503 579 37,000  Level Jacksonville Center
Sun 10:11:20 PM 33.4211 -81.2725 21° North 503 579 37,000  Level Jacksonville Center
Sun 10:12:20 PM 33.5517 -81.2078 22° Northeast 508 585 37,000  Level Jacksonville Center
Sun 10:13:20 PM 33.6803 -81.1456 22° Northeast 503 579 37,000  Level Jacksonville Center
Sun 10:14:20 PM 33.8211 -81.0703 24° Northeast 503 579 37,000  Level Jacksonville Center
Sun 10:15:20 PM 33.9242 -80.9831 35° Northeast 494 568 37,000  Level Jacksonville Center
Sun 10:16:20 PM 34.0392 -80.8628 41° Northeast 494 568 37,000  Level Jacksonville Center
Sun 10:17:20 PM 34.1458 -80.7447 42° Northeast 500 575 37,000  Level Jacksonville Center
Sun 10:18:20 PM 34.2500 -80.6267 43° Northeast 505 581 37,000  Level Jacksonville Center
Sun 10:19:20 PM 34.3564 -80.5106 42° Northeast 510 587 37,000  Level Jacksonville Center
Sun 10:21:17 PM 34.5556 -80.2822 43° Northeast 520 598 37,000  Level Washington Center
Sun 10:22:17 PM 34.6603 -80.1647 43° Northeast 513 590 37,000  Level Washington Center
Sun 10:23:17 PM 34.7625 -80.0517 42° Northeast 501 577 37,000  Level Washington Center
Sun 10:24:17 PM 34.8669 -79.9358 42° Northeast 501 577 37,000  Level Washington Center
Sun 10:25:17 PM 34.9711 -79.8222 42° Northeast 501 577 37,000  Level Washington Center
Sun 10:26:17 PM 35.0756 -79.7033 43° Northeast 501 577 37,000  Level Washington Center
Sun 10:27:17 PM 35.1797 -79.5842 43° Northeast 501 577 37,000  Level Washington Center
Sun 10:28:17 PM 35.2817 -79.4672 43° Northeast 501 577 37,000  Level Washington Center
Sun 10:29:17 PM 35.3769 -79.3622 42° Northeast 506 582 37,000  Level Washington Center
Sun 10:30:17 PM 35.4786 -79.2394 45° Northeast 506 582 37,000  Level Washington Center
Sun 10:31:17 PM 35.5931 -79.1119 42° Northeast 506 582 37,000  Level Washington Center
Sun 10:32:17 PM 35.6989 -78.9911 43° Northeast 506 582 37,000  Level Washington Center
Sun 10:33:17 PM 35.8003 -78.8700 44° Northeast 513 590 37,000  Level Washington Center
Sun 10:34:17 PM 35.9097 -78.7567 40° Northeast 513 590 37,000  Level Washington Center
Sun 10:35:17 PM 36.0103 -78.6656 36° Northeast 508 585 37,000  Level Washington Center
Sun 10:36:17 PM 36.1256 -78.5647 35° Northeast 503 579 37,000  Level Washington Center
Sun 10:37:17 PM 36.2386 -78.4633 36° Northeast 503 579 37,000  Level Washington Center
Sun 10:38:17 PM 36.3536 -78.3592 36° Northeast 503 579 37,000  Level Washington Center
Sun 10:39:17 PM 36.4644 -78.2572 36° Northeast 503 579 37,000  Level Washington Center
Sun 10:40:17 PM 36.5772 -78.1550 36° Northeast 503 579 37,000  Level Washington Center
Sun 10:41:17 PM 36.6964 -78.0400 38° Northeast 496 571 37,000  Level Washington Center
Sun 10:42:17 PM 36.8092 -77.9369 36° Northeast 496 571 37,000  Level Washington Center
Sun 10:43:17 PM 36.9239 -77.8289 37° Northeast 496 571 37,000  Level Washington Center
Sun 10:44:17 PM 37.0361 -77.7281 36° Northeast 501 577 37,000  Level Washington Center
Sun 10:46:17 PM 37.2611 -77.5150 37° Northeast 501 577 37,000  Level Washington Center
Sun 10:47:17 PM 37.3731 -77.4108 36° Northeast 501 577 37,000  Level Washington Center
Sun 10:48:17 PM 37.4872 -77.3061 36° Northeast 501 577 37,000  Level Washington Center
Sun 10:49:17 PM 37.5994 -77.1986 37° Northeast 506 582 37,000  Level Washington Center
Sun 10:50:17 PM 37.7114 -77.0881 38° Northeast 506 582 37,000  Level Washington Center
Sun 10:51:17 PM 37.8231 -76.9825 37° Northeast 506 582 37,000  Level Washington Center
Sun 10:52:17 PM 37.9369 -76.8739 37° Northeast 506 582 37,000  Level Washington Center
Sun 10:53:17 PM 38.0508 -76.7625 38° Northeast 511 588 37,000  Level Washington Center
Sun 10:54:17 PM 38.1622 -76.6533 38° Northeast 511 588 37,000  Level Washington Center
Sun 10:55:17 PM 38.2758 -76.5467 36° Northeast 511 588 37,000  Level Washington Center
Sun 10:56:17 PM 38.3725 -76.4497 38° Northeast 506 582 37,000  Level Washington Center
Sun 10:57:17 PM 38.4858 -76.3397 37° Northeast 506 582 37,000  Level Washington Center
Sun 10:58:17 PM 38.5969 -76.2319 37° Northeast 506 582 37,000  Level Washington Center
Sun 10:59:17 PM 38.7161 -76.1211 36° Northeast 516 594 37,000  Level Washington Center
Sun 11:00:17 PM 38.8250 -76.0072 39° Northeast 516 594 37,000  Level Washington Center
Sun 11:01:17 PM 38.9381 -75.8986 37° Northeast 506 582 37,000  Level Washington Center
Sun 11:02:17 PM 39.0486 -75.7867 38° Northeast 506 582 37,000  Level Washington Center
Sun 11:03:17 PM 39.1592 -75.6772 37° Northeast 506 582 37,000  Level Washington Center
Sun 11:05:17 PM 39.3869 -75.4503 38° Northeast 506 582 37,000  Level New York Center
Sun 11:06:16 PM 39.4978 -75.3364 38° Northeast 501 577 37,000  Level New York Center
Sun 11:07:16 PM 39.6083 -75.2250 38° Northeast 501 577 37,000  Level New York Center
Sun 11:08:17 PM 39.7169 -75.1078 40° Northeast 501 577 37,000  Level New York Center
Sun 11:09:17 PM 39.8272 -74.9958 38° Northeast 506 582 37,000  Level New York Center
Sun 11:10:16 PM 39.9356 -74.8831 39° Northeast 506 582 37,000  Level New York Center
Sun 11:11:16 PM 40.0192 -74.7581 49° Northeast 498 573 37,000  Level New York Center
Sun 11:12:16 PM 40.1261 -74.6122 46° Northeast 503 579 37,000  Level New York Center
Sun 11:14:15 PM 40.3828 -74.5106 17° North 486 559 37,000  Level Boston Center
Sun 11:15:15 PM 40.5086 -74.4736 13° North 474 545 37,000  Level Boston Center
Sun 11:16:15 PM 40.6406 -74.4339 13° North 474 545 37,000  Level Boston Center
Sun 11:17:15 PM 40.7683 -74.3967 12° North 468 539 37,000  Level Boston Center
Sun 11:18:15 PM 40.9022 -74.3650 10° North 474 545 37,000  Level Boston Center
Sun 11:19:15 PM 41.0300 -74.3303 12° North 474 545 37,000  Level Boston Center
Sun 11:20:15 PM 41.1597 -74.2900 13° North 469 540 37,000  Level Boston Center
Sun 11:21:15 PM 41.2750 -74.2492 15° North 469 540 37,000  Level Boston Center
Sun 11:22:15 PM 41.4028 -74.2114 13° North 469 540 37,000 -300 Level Boston Center
Sun 11:23:15 PM 41.5514 -74.1739 11° North 469 540 36,400 -750 Descending Boston Center
Sun 11:24:39 PM 41.7022 -74.1250 14° North 474 545 35,200 -958 Descending Boston Center
Sun 11:25:39 PM 41.8550 -74.0789 13° North 463 533 34,100 -1,050 Descending Boston Center
Sun 11:26:39 PM 41.9525 -73.9558 43° Northeast 456 525 33,100 -950 Descending Boston Center
Sun 11:27:39 PM 42.0317 -73.8014 55° Northeast 466 536 32,200 -950 Descending Boston Center
Sun 11:28:39 PM 42.1169 -73.6381 55° Northeast 513 590 31,200 -1,000 Descending Boston Center
Sun 11:29:39 PM 42.1956 -73.4825 56° Northeast 503 579 30,200 -1,000 Descending Boston Center
Sun 11:30:39 PM 42.2697 -73.3408 55° Northeast 485 558 29,200 -1,500 Descending Boston Center
Sun 11:31:39 PM 42.3458 -73.1844 57° Northeast 474 545 27,200 -2,100 Descending Boston Center
Sun 11:32:39 PM 42.4175 -73.0419 56° Northeast 474 545 25,000 -2,150 Descending Boston Center
Sun 11:33:39 PM 42.4869 -72.9047 56° Northeast 462 532 22,900 -2,000 Descending Boston Center
Sun 11:34:39 PM 42.5519 -72.7756 56° Northeast 440 506 21,000 -1,750 Descending Boston Center
Sun 11:35:39 PM 42.6022 -72.6742 56° Northeast 422 486 19,400 -1,450 Descending Boston Center
Sun 11:36:39 PM 42.6692 -72.5447 55° Northeast 396 456 18,100 -1,800 Descending Boston Center
Sun 11:37:39 PM 42.7297 -72.4258 55° Northeast 382 440 15,800 -2,300 Descending Boston Center
Sun 11:38:39 PM 42.7858 -72.3100 57° Northeast 377 434 13,500 -2,300 Descending Boston Center
Sun 11:39:39 PM 42.8044 -72.1656 80° East 354 407 11,200 -1,650 Descending Boston Center
Sun 11:40:39 PM 42.8103 -72.0525 86° East 342 394 10,200 -850 Descending Boston Center
Sun 11:41:39 PM 42.8056 -71.9364 93° East 296 341 9,500 -1,050 Descending Boston Center
Sun 11:42:39 PM 42.7969 -71.8458 97° East 272 313 8,100 -1,550 Descending Boston Center
Sun 11:43:39 PM 42.7900 -71.7356 95° East 266 306 6,400 -1,500 Descending Boston Center
Sun 11:44:39 PM 42.7853 -71.6536 94° East 250 288 5,100 -1,350 Descending Boston Center
Sun 11:45:39 PM 42.7889 -71.5547 87° East 236 272 3,700 -1,050 Descending Boston Center
Sun 11:46:39 PM 42.8008 -71.4836 77° East 215 247 3,000 -450 Descending Boston Center
Sun 11:47:39 PM 42.8147 -71.4097 76° East 188 216 2,800 -450 Descending Boston Center
Sun 11:48:39 PM 42.8478 -71.3839 30° Northeast 144 166 2,100 -900 Descending Boston Center
Sun 11:49:39 PM 42.8897 -71.4086 337° Northwest 137 158 1,000 3,450 Descending Boston Center
Sun 11:50:39 PM 42.9189 -71.4281 334° Northwest 142 163 9,000 4,000 Climbing Boston Center
Sun 11:51:39 PM 42.9589 -71.4472 341° North 142 163 9,000  Level Boston Center
Sun 11:52:39 PM 42.9964 -71.4664 340° North 142 163 9,000  Level Boston Center
Sun 11:53:39 PM 43.0319 -71.4886 335° Northwest 142 163 9,000  Level Boston Center
Sun 11:55:00 PM 42.9328 -71.4358 170° South  Level Estimated
Mon 12:02:00 AM 42.9328 -71.4358 170° South  Level Estimated
Mon 12:03:00 AM 42.9328 -71.4358 170° South  Level Estimated
Mon 12:04:00 AM 42.9328 -71.4358 170° South  Level Estimated
Mon 12:05:00 AM 42.9328 -71.4358 170° South  Level Estimated
Mon 12:06:00 AM 42.9328 -71.4358 170° South  Level Estimated

Login

Don't have an account? Register now (free) for customized features, flight alerts, and more!